Time;durP1;ratioP1;P1;durP2;ratioP2;P2;SDS_P1;SDS_P2;PMS_P1;PMS_P2;Temp;Humidity;BMP_temperature;BMP_pressure;BME280_temperature;BME280_humidity;BME280_pressure;Samples;Min_cycle;Max_cycle;Signal;HPM_P1;HPM_P2
2021/09/04 00:00:25;;;;;;;14.07;11.20;;;;;;;;;;5114873;28;20201;-64
2021/09/04 00:02:53;;;;;;;14.13;11.40;;;;;;;;;;5098017;28;20572;-64
2021/09/04 00:05:22;;;;;;;17.67;11.43;;;;;;;;;;5096885;28;20298;-64
2021/09/04 00:07:50;;;;;;;13.27;11.73;;;;;;;;;;5097228;28;20229;-64
2021/09/04 00:10:19;;;;;;;13.97;12.17;;;;;;;;;;5097290;28;20215;-64
2021/09/04 00:12:47;;;;;;;13.90;11.47;;;;;;;;;;5108122;28;20240;-64
2021/09/04 00:15:15;;;;;;;16.10;11.17;;;;;;;;;;5097038;28;20226;-64
2021/09/04 00:17:43;;;;;;;11.20;9.77;;;;;;;;;;5107797;28;20198;-64
2021/09/04 00:20:12;;;;;;;15.57;11.40;;;;;;;;;;5110752;28;20197;-64
2021/09/04 00:22:40;;;;;;;12.67;10.70;;;;;;;;;;5119889;28;20295;-64
2021/09/04 00:25:08;;;;;;;14.37;11.67;;;;;;;;;;5116180;27;20223;-64
2021/09/04 00:27:38;;;;;;;15.53;10.70;;;;;;;;;;5111478;28;20225;-64
2021/09/04 00:30:06;;;;;;;15.57;10.97;;;;;;;;;;5108223;28;20196;-64
2021/09/04 00:32:34;;;;;;;16.77;10.60;;;;;;;;;;5120098;28;20205;-64
2021/09/04 00:35:02;;;;;;;15.63;9.30;;;;;;;;;;5120974;28;20229;-64
2021/09/04 00:37:34;;;;;;;13.37;8.97;;;;;;;;;;5119703;28;20619;-65
2021/09/04 00:40:02;;;;;;;12.50;9.63;;;;;;;;;;5109787;27;20200;-65
2021/09/04 00:42:30;;;;;;;11.50;9.20;;;;;;;;;;5112710;28;20203;-64
2021/09/04 00:45:00;;;;;;;12.80;8.33;;;;;;;;;;5120329;28;20559;-64
2021/09/04 00:47:28;;;;;;;10.93;9.03;;;;;;;;;;5104907;28;20224;-64
2021/09/04 00:49:56;;;;;;;11.47;8.60;;;;;;;;;;5117969;28;20601;-64
2021/09/04 00:52:24;;;;;;;10.30;8.43;;;;;;;;;;5110368;28;20237;-64
2021/09/04 00:54:52;;;;;;;11.80;8.47;;;;;;;;;;5116472;28;20223;-64
2021/09/04 00:57:20;;;;;;;14.03;9.83;;;;;;;;;;5118854;27;20576;-64
2021/09/04 00:59:48;;;;;;;15.17;9.33;;;;;;;;;;5110561;28;20197;-64
2021/09/04 01:02:18;;;;;;;11.43;8.67;;;;;;;;;;5108581;28;20197;-65
2021/09/04 01:04:47;;;;;;;9.77;8.77;;;;;;;;;;5107259;28;20225;-64
2021/09/04 01:07:15;;;;;;;11.67;8.80;;;;;;;;;;5099269;28;20229;-64
2021/09/04 01:09:43;;;;;;;10.40;8.77;;;;;;;;;;5110978;28;20205;-64
2021/09/04 01:12:13;;;;;;;11.93;9.10;;;;;;;;;;5118951;28;20208;-64
2021/09/04 01:14:41;;;;;;;15.43;10.13;;;;;;;;;;5120370;28;20225;-64
2021/09/04 01:17:09;;;;;;;10.23;8.90;;;;;;;;;;5113619;28;20278;-64
2021/09/04 01:19:39;;;;;;;10.03;9.03;;;;;;;;;;5105010;28;20200;-64
2021/09/04 01:22:06;;;;;;;12.73;9.70;;;;;;;;;;5099124;28;20198;-65
2021/09/04 01:24:35;;;;;;;14.53;9.70;;;;;;;;;;5106485;28;20229;-64
2021/09/04 01:27:04;;;;;;;10.70;9.60;;;;;;;;;;5116442;28;20548;-64
2021/09/04 01:29:32;;;;;;;12.33;10.30;;;;;;;;;;5117777;28;20207;-64
2021/09/04 01:32:00;;;;;;;10.03;8.67;;;;;;;;;;5119646;27;20208;-64
2021/09/04 01:34:28;;;;;;;12.17;9.53;;;;;;;;;;5118378;28;20263;-64
2021/09/04 01:36:56;;;;;;;12.27;9.13;;;;;;;;;;5099187;28;20204;-64
2021/09/04 01:39:24;;;;;;;12.83;8.23;;;;;;;;;;5099352;28;20209;-64
2021/09/04 01:41:52;;;;;;;12.47;8.50;;;;;;;;;;5099191;28;20212;-64
2021/09/04 01:44:21;;;;;;;10.97;8.47;;;;;;;;;;5107599;28;20617;-64
2021/09/04 01:46:49;;;;;;;11.77;7.80;;;;;;;;;;5114874;28;20589;-64
2021/09/04 01:49:17;;;;;;;9.30;7.30;;;;;;;;;;5100563;28;20687;-64
2021/09/04 01:51:46;;;;;;;8.80;7.53;;;;;;;;;;5106557;28;20237;-64
2021/09/04 01:54:14;;;;;;;9.57;6.93;;;;;;;;;;5117814;28;20234;-64
2021/09/04 01:56:42;;;;;;;9.03;7.30;;;;;;;;;;5106138;28;20292;-64
2021/09/04 01:59:10;;;;;;;10.77;7.30;;;;;;;;;;5105515;28;20193;-64
2021/09/04 02:01:39;;;;;;;9.73;7.03;;;;;;;;;;5118215;28;20279;-65
2021/09/04 02:04:07;;;;;;;9.23;7.07;;;;;;;;;;5119033;28;20254;-64
2021/09/04 02:06:35;;;;;;;7.50;6.83;;;;;;;;;;5099005;28;20227;-65
2021/09/04 02:09:04;;;;;;;11.73;7.17;;;;;;;;;;5098576;28;20231;-64
2021/09/04 02:11:32;;;;;;;7.47;6.30;;;;;;;;;;5097102;28;20201;-64
2021/09/04 02:14:01;;;;;;;8.67;6.43;;;;;;;;;;5098648;28;20225;-64
2021/09/04 02:16:29;;;;;;;9.17;7.10;;;;;;;;;;5101680;28;20197;-64
2021/09/04 02:18:58;;;;;;;8.20;6.33;;;;;;;;;;5098291;28;20216;-65
2021/09/04 02:21:29;;;;;;;9.23;6.23;;;;;;;;;;5102781;28;20192;-64
2021/09/04 02:23:57;;;;;;;9.33;6.40;;;;;;;;;;5116501;28;20751;-64
2021/09/04 02:26:26;;;;;;;10.13;6.20;;;;;;;;;;5104625;28;20273;-63
2021/09/04 02:28:54;;;;;;;12.63;6.13;;;;;;;;;;5101023;28;20213;-63
2021/09/04 02:31:24;;;;;;;9.57;5.80;;;;;;;;;;5117644;28;20201;-62
2021/09/04 02:33:53;;;;;;;8.70;6.27;;;;;;;;;;5116875;28;20702;-63
2021/09/04 02:36:22;;;;;;;11.63;5.07;;;;;;;;;;5098763;28;20213;-62
2021/09/04 02:38:51;;;;;;;7.77;5.00;;;;;;;;;;5098286;28;20203;-63
2021/09/04 02:41:18;;;;;;;8.77;5.03;;;;;;;;;;5098209;28;20216;-64
2021/09/04 02:43:46;;;;;;;10.77;5.23;;;;;;;;;;5097689;28;20228;-62
2021/09/04 02:46:14;;;;;;;7.63;4.87;;;;;;;;;;5097908;28;20215;-63
2021/09/04 02:48:42;;;;;;;5.57;5.03;;;;;;;;;;5097201;28;20325;-62
2021/09/04 02:51:10;;;;;;;7.70;4.80;;;;;;;;;;5103792;28;20229;-62
2021/09/04 02:53:40;;;;;;;12.60;5.63;;;;;;;;;;5117059;28;20223;-64
2021/09/04 02:56:08;;;;;;;8.30;5.00;;;;;;;;;;5117552;28;20200;-63
2021/09/04 02:58:36;;;;;;;7.73;5.17;;;;;;;;;;5117067;28;20201;-63
2021/09/04 03:01:04;;;;;;;8.40;4.77;;;;;;;;;;5116886;28;20220;-63
2021/09/04 03:03:32;;;;;;;7.30;5.20;;;;;;;;;;5117234;28;20197;-62
2021/09/04 03:06:01;;;;;;;5.57;4.63;;;;;;;;;;5100191;28;20223;-64
2021/09/04 03:08:29;;;;;;;6.10;4.60;;;;;;;;;;5097675;28;20227;-64
2021/09/04 03:11:02;;;;;;;8.60;5.07;;;;;;;;;;5097362;28;20687;-64
2021/09/04 03:13:30;;;;;;;5.90;5.23;;;;;;;;;;5115016;28;20570;-64
2021/09/04 03:15:58;;;;;;;9.33;5.73;;;;;;;;;;5118078;28;20204;-64
2021/09/04 03:18:26;;;;;;;6.30;5.67;;;;;;;;;;5104048;28;20197;-64
2021/09/04 03:20:54;;;;;;;9.70;5.93;;;;;;;;;;5112537;28;20211;-64
2021/09/04 03:23:22;;;;;;;7.43;6.10;;;;;;;;;;5115094;28;20201;-63
2021/09/04 03:25:50;;;;;;;7.17;5.93;;;;;;;;;;5113754;28;20197;-65
2021/09/04 03:28:19;;;;;;;6.67;5.97;;;;;;;;;;5115208;28;20231;-65
2021/09/04 03:30:47;;;;;;;6.53;5.77;;;;;;;;;;5107599;28;20287;-65
2021/09/04 03:33:15;;;;;;;8.13;6.27;;;;;;;;;;5117709;28;20211;-65
2021/09/04 03:35:44;;;;;;;6.97;5.80;;;;;;;;;;5117386;28;20224;-65
2021/09/04 03:38:12;;;;;;;7.53;6.70;;;;;;;;;;5116620;28;20201;-65
2021/09/04 03:40:39;;;;;;;9.93;5.83;;;;;;;;;;5118203;28;20205;-65
2021/09/04 03:43:07;;;;;;;7.43;6.30;;;;;;;;;;5106116;28;20208;-62
2021/09/04 03:45:37;;;;;;;7.83;5.83;;;;;;;;;;5118043;28;20225;-63
2021/09/04 03:48:05;;;;;;;8.40;5.67;;;;;;;;;;5116305;28;20725;-65
2021/09/04 03:50:33;;;;;;;9.17;6.00;;;;;;;;;;5106884;28;20197;-65
2021/09/04 03:53:01;;;;;;;6.20;5.30;;;;;;;;;;5105020;28;20649;-64
2021/09/04 03:55:29;;;;;;;5.77;5.03;;;;;;;;;;5116319;28;20223;-62
2021/09/04 03:57:57;;;;;;;8.27;5.77;;;;;;;;;;5119338;28;20690;-62
2021/09/04 04:00:25;;;;;;;7.73;5.37;;;;;;;;;;5106172;28;20189;-63
2021/09/04 04:02:58;;;;;;;8.57;5.97;;;;;;;;;;5108361;28;20194;-64
2021/09/04 04:05:26;;;;;;;6.13;5.23;;;;;;;;;;5111895;28;20235;-64
2021/09/04 04:07:54;;;;;;;9.17;6.37;;;;;;;;;;5106132;28;20202;-64
2021/09/04 04:10:22;;;;;;;8.53;5.33;;;;;;;;;;5111383;28;20304;-63
2021/09/04 04:12:50;;;;;;;6.33;5.73;;;;;;;;;;5109934;28;20285;-62
2021/09/04 04:15:18;;;;;;;8.13;5.73;;;;;;;;;;5111530;28;20229;-62
2021/09/04 04:17:46;;;;;;;6.60;5.67;;;;;;;;;;5112329;28;20238;-62
2021/09/04 04:20:16;;;;;;;8.10;5.97;;;;;;;;;;5109484;28;20197;-62
2021/09/04 04:22:44;;;;;;;12.53;5.37;;;;;;;;;;5109226;28;20224;-62
2021/09/04 04:25:12;;;;;;;8.50;5.80;;;;;;;;;;5112171;28;20687;-62
2021/09/04 04:27:40;;;;;;;9.47;5.47;;;;;;;;;;5099372;28;20205;-62
2021/09/04 04:30:08;;;;;;;7.53;4.83;;;;;;;;;;5100027;28;20298;-63
2021/09/04 04:32:36;;;;;;;7.97;5.17;;;;;;;;;;5111180;28;20194;-64
2021/09/04 04:35:09;;;;;;;5.40;4.90;;;;;;;;;;5110789;28;20213;-64
2021/09/04 04:37:38;;;;;;;7.83;5.50;;;;;;;;;;5109711;28;20239;-64
2021/09/04 04:40:07;;;;;;;6.77;5.23;;;;;;;;;;5106985;28;20905;-65
2021/09/04 04:42:35;;;;;;;7.00;5.70;;;;;;;;;;5108604;28;20658;-64
2021/09/04 04:45:03;;;;;;;5.33;4.67;;;;;;;;;;5105978;28;20601;-64
2021/09/04 04:47:32;;;;;;;7.80;4.97;;;;;;;;;;5105790;28;20206;-64
2021/09/04 04:50:00;;;;;;;9.57;5.07;;;;;;;;;;5108108;28;20222;-64
2021/09/04 04:52:28;;;;;;;5.43;4.73;;;;;;;;;;5106797;28;20221;-64
2021/09/04 04:54:57;;;;;;;9.83;4.73;;;;;;;;;;5105720;27;20244;-63
2021/09/04 04:57:25;;;;;;;5.13;4.63;;;;;;;;;;5107052;28;20212;-64
2021/09/04 04:59:54;;;;;;;5.70;5.20;;;;;;;;;;5108120;28;20202;-64
2021/09/04 05:02:22;;;;;;;7.03;5.27;;;;;;;;;;5109813;28;20195;-63
2021/09/04 05:04:50;;;;;;;6.80;5.50;;;;;;;;;;5106949;28;20215;-63
2021/09/04 05:07:18;;;;;;;5.70;5.20;;;;;;;;;;5106226;28;20204;-63
2021/09/04 05:09:46;;;;;;;6.90;5.03;;;;;;;;;;5105999;28;20225;-63
2021/09/04 05:12:15;;;;;;;7.37;5.93;;;;;;;;;;5108424;28;20213;-63
2021/09/04 05:14:43;;;;;;;6.27;4.57;;;;;;;;;;5108094;28;20225;-64
2021/09/04 05:17:11;;;;;;;6.80;5.13;;;;;;;;;;5107184;28;20203;-64
2021/09/04 05:19:39;;;;;;;7.47;5.20;;;;;;;;;;5105822;28;20191;-64
2021/09/04 05:22:08;;;;;;;19.20;13.60;;;;;;;;;;5106622;28;20198;-64
2021/09/04 05:24:35;;;;;;;9.47;5.87;;;;;;;;;;5102399;28;20269;-64
2021/09/04 05:27:04;;;;;;;8.07;5.63;;;;;;;;;;5103801;28;20203;-62
2021/09/04 05:29:33;;;;;;;6.53;5.10;;;;;;;;;;5110549;27;20225;-63
2021/09/04 05:32:01;;;;;;;6.07;5.47;;;;;;;;;;5109160;28;20209;-63
2021/09/04 05:34:29;;;;;;;5.77;5.13;;;;;;;;;;5118338;28;20259;-62
2021/09/04 05:36:57;;;;;;;6.90;5.67;;;;;;;;;;5117722;28;20278;-63
2021/09/04 05:39:25;;;;;;;9.40;5.83;;;;;;;;;;5099116;27;20206;-64
2021/09/04 05:41:53;;;;;;;11.60;5.43;;;;;;;;;;5099342;28;20214;-64
2021/09/04 05:44:21;;;;;;;6.20;4.93;;;;;;;;;;5113555;28;20304;-64
2021/09/04 05:46:50;;;;;;;8.10;5.40;;;;;;;;;;5118688;28;20278;-64
2021/09/04 05:49:18;;;;;;;6.57;5.43;;;;;;;;;;5119383;28;20292;-64
2021/09/04 05:51:46;;;;;;;6.33;5.67;;;;;;;;;;5102080;28;20315;-64
2021/09/04 05:54:14;;;;;;;7.40;5.43;;;;;;;;;;5106882;28;20301;-64
2021/09/04 05:56:42;;;;;;;9.90;5.53;;;;;;;;;;5118632;28;20213;-64
2021/09/04 05:59:10;;;;;;;8.73;6.00;;;;;;;;;;5113056;28;20223;-64
2021/09/04 06:01:38;;;;;;;10.23;6.50;;;;;;;;;;5118251;28;20200;-64
2021/09/04 06:04:08;;;;;;;7.10;6.30;;;;;;;;;;5111040;28;20271;-64
2021/09/04 06:06:36;;;;;;;9.60;6.77;;;;;;;;;;5100492;28;20216;-64
2021/09/04 06:09:05;;;;;;;7.27;6.10;;;;;;;;;;5118767;28;20209;-64
2021/09/04 06:11:33;;;;;;;10.50;7.37;;;;;;;;;;5117375;28;20754;-63
2021/09/04 06:14:02;;;;;;;8.33;6.93;;;;;;;;;;5119260;28;20595;-64
2021/09/04 06:16:30;;;;;;;11.13;7.13;;;;;;;;;;5113394;27;20228;-64
2021/09/04 06:18:58;;;;;;;8.13;6.47;;;;;;;;;;5098051;28;20209;-64
2021/09/04 06:21:27;;;;;;;9.80;7.70;;;;;;;;;;5099367;28;20288;-64
2021/09/04 06:23:55;;;;;;;8.20;7.20;;;;;;;;;;5098513;28;20228;-64
2021/09/04 06:26:23;;;;;;;9.60;7.70;;;;;;;;;;5101167;28;20209;-64
2021/09/04 06:28:51;;;;;;;11.03;7.13;;;;;;;;;;5105837;28;20200;-64
2021/09/04 06:31:19;;;;;;;10.53;7.17;;;;;;;;;;5112995;28;20226;-64
2021/09/04 06:33:47;;;;;;;10.13;7.60;;;;;;;;;;5104175;28;20579;-64
2021/09/04 06:36:15;;;;;;;11.03;7.37;;;;;;;;;;5118411;28;20211;-64
2021/09/04 06:38:44;;;;;;;11.07;7.07;;;;;;;;;;5116174;28;20607;-63
2021/09/04 06:41:12;;;;;;;10.80;7.47;;;;;;;;;;5118842;28;20207;-63
2021/09/04 06:43:40;;;;;;;8.90;7.70;;;;;;;;;;5117534;28;20207;-63
2021/09/04 06:46:08;;;;;;;9.73;7.73;;;;;;;;;;5118520;28;20599;-68
2021/09/04 06:48:36;;;;;;;10.70;7.70;;;;;;;;;;5117514;28;20632;-67
2021/09/04 06:51:04;;;;;;;10.57;8.73;;;;;;;;;;5105988;28;20237;-72
2021/09/04 06:53:32;;;;;;;11.43;8.47;;;;;;;;;;5099906;27;20869;-73
2021/09/04 06:56:02;;;;;;;9.00;7.83;;;;;;;;;;5098055;28;20209;-72
2021/09/04 06:58:30;;;;;;;16.40;8.57;;;;;;;;;;5100595;28;20197;-72
2021/09/04 07:01:00;;;;;;;13.00;9.20;;;;;;;;;;5106517;28;20196;-68
2021/09/04 07:03:29;;;;;;;10.47;8.53;;;;;;;;;;5104419;28;20200;-67
2021/09/04 07:05:57;;;;;;;11.17;8.70;;;;;;;;;;5106166;28;20197;-66
2021/09/04 07:08:25;;;;;;;13.23;9.63;;;;;;;;;;5106703;28;20244;-67
2021/09/04 07:10:53;;;;;;;9.27;7.83;;;;;;;;;;5104820;28;20243;-66
2021/09/04 07:13:22;;;;;;;11.90;8.53;;;;;;;;;;5103621;28;20283;-66
2021/09/04 07:15:50;;;;;;;13.37;9.20;;;;;;;;;;5117356;28;20264;-66
2021/09/04 07:18:20;;;;;;;15.80;10.57;;;;;;;;;;5114079;28;20197;-65
2021/09/04 07:20:48;;;;;;;10.63;8.83;;;;;;;;;;5104647;28;20653;-66
2021/09/04 07:23:16;;;;;;;14.27;8.83;;;;;;;;;;5105211;28;20206;-67
2021/09/04 07:25:44;;;;;;;13.07;9.23;;;;;;;;;;5109891;28;20222;-66
2021/09/04 07:28:12;;;;;;;13.97;8.77;;;;;;;;;;5106123;28;20204;-65
2021/09/04 07:30:41;;;;;;;11.67;8.83;;;;;;;;;;5105450;28;20587;-66
2021/09/04 07:33:09;;;;;;;13.60;8.20;;;;;;;;;;5111279;28;20196;-66
2021/09/04 07:35:37;;;;;;;12.87;9.50;;;;;;;;;;5109361;28;20217;-67
2021/09/04 07:38:05;;;;;;;9.50;8.50;;;;;;;;;;5109234;28;20598;-66
2021/09/04 07:40:33;;;;;;;12.77;9.43;;;;;;;;;;5109466;28;20558;-65
2021/09/04 07:43:03;;;;;;;10.37;8.67;;;;;;;;;;5104122;28;20208;-65
2021/09/04 07:45:31;;;;;;;9.27;8.27;;;;;;;;;;5101513;28;20312;-66
2021/09/04 07:48:00;;;;;;;12.27;8.87;;;;;;;;;;5107373;28;20200;-66
2021/09/04 07:50:28;;;;;;;12.07;9.43;;;;;;;;;;5108927;28;20236;-66
2021/09/04 07:52:56;;;;;;;10.93;8.47;;;;;;;;;;5105766;28;20278;-66
2021/09/04 07:55:25;;;;;;;12.37;9.53;;;;;;;;;;5107455;28;20226;-66
2021/09/04 07:57:53;;;;;;;12.67;9.27;;;;;;;;;;5112705;28;20686;-66
2021/09/04 08:00:21;;;;;;;8.93;7.90;;;;;;;;;;5110055;28;20214;-66
2021/09/04 08:02:49;;;;;;;14.23;8.30;;;;;;;;;;5105619;28;20203;-65
2021/09/04 08:05:19;;;;;;;9.63;7.87;;;;;;;;;;5108863;28;20220;-67
2021/09/04 08:07:47;;;;;;;9.60;8.60;;;;;;;;;;5108190;28;20264;-67
2021/09/04 08:10:15;;;;;;;9.17;7.77;;;;;;;;;;5108359;28;20205;-67
2021/09/04 08:12:43;;;;;;;8.60;7.80;;;;;;;;;;5107036;28;20221;-66
2021/09/04 08:15:11;;;;;;;11.80;7.23;;;;;;;;;;5106543;28;20252;-66
2021/09/04 08:17:39;;;;;;;9.20;8.27;;;;;;;;;;5099739;28;20198;-65
2021/09/04 08:20:08;;;;;;;10.90;7.50;;;;;;;;;;5100422;28;20276;-66
2021/09/04 08:22:38;;;;;;;9.00;7.53;;;;;;;;;;5099984;28;20204;-65
2021/09/04 08:25:06;;;;;;;12.60;7.40;;;;;;;;;;5102766;28;20223;-65
2021/09/04 08:27:34;;;;;;;8.80;7.67;;;;;;;;;;5108746;28;20284;-68
2021/09/04 08:30:02;;;;;;;9.73;7.50;;;;;;;;;;5106369;28;20213;-67
2021/09/04 08:32:30;;;;;;;11.50;6.60;;;;;;;;;;5104966;28;20230;-66
2021/09/04 08:34:58;;;;;;;8.77;6.27;;;;;;;;;;5104112;28;20265;-66
2021/09/04 08:37:26;;;;;;;7.90;6.60;;;;;;;;;;5102539;28;20214;-66
2021/09/04 08:39:56;;;;;;;7.53;6.13;;;;;;;;;;5104657;28;20211;-66
2021/09/04 08:42:24;;;;;;;6.53;5.93;;;;;;;;;;5109002;27;20207;-67
2021/09/04 08:44:52;;;;;;;7.17;6.47;;;;;;;;;;5111911;28;20226;-67
2021/09/04 08:47:20;;;;;;;7.93;5.90;;;;;;;;;;5112347;28;20240;-67
2021/09/04 08:49:48;;;;;;;6.77;6.07;;;;;;;;;;5115770;27;20202;-67
2021/09/04 08:52:18;;;;;;;7.30;6.50;;;;;;;;;;5103086;28;20244;-67
2021/09/04 08:54:47;;;;;;;7.30;6.40;;;;;;;;;;5108684;28;20228;-67
2021/09/04 08:57:16;;;;;;;8.23;6.63;;;;;;;;;;5104953;28;20210;-67
2021/09/04 08:59:49;;;;;;;7.10;6.40;;;;;;;;;;5109994;28;20205;-69
2021/09/04 09:02:17;;;;;;;8.13;6.43;;;;;;;;;;5099832;28;20265;-67
2021/09/04 09:04:54;;;;;;;7.73;6.63;;;;;;;;;;5099269;28;20730;-66
2021/09/04 09:07:22;;;;;;;7.53;6.47;;;;;;;;;;5102314;28;20297;-66
2021/09/04 09:09:50;;;;;;;9.30;6.53;;;;;;;;;;5106226;28;20202;-70
2021/09/04 09:12:19;;;;;;;7.93;6.27;;;;;;;;;;5103877;28;20225;-65
2021/09/04 09:14:57;;;;;;;7.33;6.33;;;;;;;;;;5103452;28;20570;-65
2021/09/04 09:17:26;;;;;;;11.27;6.93;;;;;;;;;;5103344;28;20201;-65
2021/09/04 09:20:04;;;;;;;12.37;7.50;;;;;;;;;;5105677;28;20194;-65
2021/09/04 09:22:42;;;;;;;8.80;7.87;;;;;;;;;;5098553;28;20218;-63
2021/09/04 09:25:14;;;;;;;8.57;7.10;;;;;;;;;;5101641;28;20220;-65
2021/09/04 09:30:38;;;;;;;9.23;6.77;;;;;;;;;;5138829;27;20566;-65
2021/09/04 09:33:07;;;;;;;7.73;6.30;;;;;;;;;;5139568;27;20673;-67
2021/09/04 09:35:39;;;;;;;7.43;6.63;;;;;;;;;;5123472;28;20218;-64
2021/09/04 09:38:09;;;;;;;7.60;5.73;;;;;;;;;;5122908;28;20200;-65
2021/09/04 09:40:38;;;;;;;9.17;5.97;;;;;;;;;;5119908;28;20236;-68
2021/09/04 09:43:16;;;;;;;8.60;6.50;;;;;;;;;;5120136;27;20192;-68
2021/09/04 09:45:47;;;;;;;6.07;5.37;;;;;;;;;;5119727;28;20237;-68
2021/09/04 09:48:17;;;;;;;9.37;5.27;;;;;;;;;;5117287;28;20570;-68
2021/09/04 09:50:45;;;;;;;6.80;4.43;;;;;;;;;;5124626;27;20208;-68
2021/09/04 09:53:13;;;;;;;7.03;4.83;;;;;;;;;;5117194;27;20207;-65
2021/09/04 09:55:44;;;;;;;4.73;4.30;;;;;;;;;;5118927;28;20286;-65
2021/09/04 09:58:12;;;;;;;4.70;4.10;;;;;;;;;;5118809;28;20195;-68
2021/09/04 10:00:40;;;;;;;4.83;4.33;;;;;;;;;;5119747;28;21829;-67
2021/09/04 10:03:10;;;;;;;5.20;4.13;;;;;;;;;;5123117;28;20194;-67
2021/09/04 10:05:39;;;;;;;5.13;4.73;;;;;;;;;;5124256;28;20299;-67
2021/09/04 10:08:07;;;;;;;5.60;4.77;;;;;;;;;;5121356;28;20208;-66
2021/09/04 10:10:35;;;;;;;5.30;4.80;;;;;;;;;;5122582;28;20257;-67
2021/09/04 10:13:03;;;;;;;7.67;5.13;;;;;;;;;;5130548;27;20226;-66
2021/09/04 10:15:33;;;;;;;4.73;4.30;;;;;;;;;;5120100;28;20669;-67
2021/09/04 10:18:02;;;;;;;7.83;5.30;;;;;;;;;;5129372;27;20204;-67
2021/09/04 10:20:32;;;;;;;4.73;4.23;;;;;;;;;;5121149;28;20289;-67
2021/09/04 10:23:13;;;;;;;7.50;4.70;;;;;;;;;;5113569;28;20207;-67
2021/09/04 10:25:41;;;;;;;6.53;4.67;;;;;;;;;;5120635;28;20218;-68
2021/09/04 10:28:09;;;;;;;4.73;4.30;;;;;;;;;;5124499;28;20210;-68
2021/09/04 10:30:39;;;;;;;6.73;4.77;;;;;;;;;;5119928;28;20238;-67
2021/09/04 10:33:07;;;;;;;7.23;4.43;;;;;;;;;;5116146;28;20200;-68
2021/09/04 10:35:44;;;;;;;9.90;5.70;;;;;;;;;;5119080;28;20302;-67
2021/09/04 10:38:31;;;;;;;6.33;5.00;;;;;;;;;;5121112;27;20663;-66
2021/09/04 10:41:16;;;;;;;7.83;5.53;;;;;;;;;;5110498;28;20205;-67
2021/09/04 10:43:45;;;;;;;7.23;5.30;;;;;;;;;;5105385;28;20229;-68
2021/09/04 10:46:15;;;;;;;5.70;5.10;;;;;;;;;;5103269;28;20203;-68
2021/09/04 10:48:52;;;;;;;6.43;5.30;;;;;;;;;;5105461;28;20203;-68
2021/09/04 10:51:41;;;;;;;4.93;4.30;;;;;;;;;;5107678;28;20195;-68
2021/09/04 10:54:09;;;;;;;6.57;3.97;;;;;;;;;;5106888;28;20293;-68
2021/09/04 10:56:39;;;;;;;4.60;4.20;;;;;;;;;;5104381;28;20212;-68
2021/09/04 10:59:07;;;;;;;6.83;4.47;;;;;;;;;;5104234;28;20261;-66
2021/09/04 11:01:49;;;;;;;4.63;4.03;;;;;;;;;;5099148;28;20202;-67
2021/09/04 11:04:18;;;;;;;6.23;4.03;;;;;;;;;;5102427;28;20578;-66
2021/09/04 11:06:50;;;;;;;4.97;4.00;;;;;;;;;;5106782;28;20618;-66
2021/09/04 11:09:18;;;;;;;4.87;3.60;;;;;;;;;;5107789;28;20222;-70
2021/09/04 11:11:47;;;;;;;6.10;3.00;;;;;;;;;;5107729;28;20233;-67
2021/09/04 11:14:16;;;;;;;3.70;3.30;;;;;;;;;;5108952;28;20214;-67
2021/09/04 11:16:47;;;;;;;6.43;3.60;;;;;;;;;;5106468;28;20964;-67
2021/09/04 11:19:27;;;;;;;4.87;3.37;;;;;;;;;;5108591;28;20600;-67
2021/09/04 11:21:58;;;;;;;3.67;3.23;;;;;;;;;;5105760;28;20203;-66
2021/09/04 11:24:36;;;;;;;5.00;4.00;;;;;;;;;;5110439;28;20216;-66
2021/09/04 11:27:06;;;;;;;5.20;3.37;;;;;;;;;;5106752;28;20262;-66
2021/09/04 11:29:37;;;;;;;4.30;3.47;;;;;;;;;;5105941;28;20240;-66
2021/09/04 11:32:06;;;;;;;4.07;3.07;;;;;;;;;;5106053;28;20198;-67
2021/09/04 11:34:48;;;;;;;3.93;3.07;;;;;;;;;;5107662;28;20248;-67
2021/09/04 11:37:27;;;;;;;4.87;3.87;;;;;;;;;;5106358;28;20203;-67
2021/09/04 11:39:57;;;;;;;3.23;2.93;;;;;;;;;;5107087;28;20198;-67
2021/09/04 11:42:25;;;;;;;4.47;3.10;;;;;;;;;;5108048;28;20204;-66
2021/09/04 11:44:54;;;;;;;3.03;2.70;;;;;;;;;;5106002;28;20213;-67
2021/09/04 11:47:22;;;;;;;3.63;3.10;;;;;;;;;;5103925;27;20201;-66
2021/09/04 11:49:51;;;;;;;3.80;2.90;;;;;;;;;;5107356;28;20223;-66
2021/09/04 11:52:24;;;;;;;4.17;2.80;;;;;;;;;;5105678;28;20560;-66
2021/09/04 11:55:03;;;;;;;5.77;2.90;;;;;;;;;;5106841;28;20312;-66
2021/09/04 11:57:33;;;;;;;4.03;3.00;;;;;;;;;;5106796;28;20572;-67
2021/09/04 12:00:02;;;;;;;4.93;3.47;;;;;;;;;;5102779;28;20206;-67
2021/09/04 12:02:31;;;;;;;3.17;2.77;;;;;;;;;;5104077;28;20206;-65
2021/09/04 12:05:03;;;;;;;3.40;3.10;;;;;;;;;;5098665;28;20289;-67
2021/09/04 12:07:32;;;;;;;7.97;3.27;;;;;;;;;;5098460;28;20244;-67
2021/09/04 12:10:03;;;;;;;3.07;2.77;;;;;;;;;;5118923;28;20691;-67
2021/09/04 12:12:31;;;;;;;5.20;3.17;;;;;;;;;;5118945;28;20227;-67
2021/09/04 12:15:00;;;;;;;3.50;3.20;;;;;;;;;;5119888;28;20225;-67
2021/09/04 12:17:28;;;;;;;3.73;3.30;;;;;;;;;;5115768;28;20212;-65
2021/09/04 12:19:56;;;;;;;3.87;3.27;;;;;;;;;;5109888;28;20207;-65
2021/09/04 12:22:42;;;;;;;4.27;3.27;;;;;;;;;;5097970;28;20205;-67
2021/09/04 12:25:25;;;;;;;4.13;2.87;;;;;;;;;;5099785;28;20221;-67
2021/09/04 12:27:59;;;;;;;3.47;3.10;;;;;;;;;;5098360;28;20328;-66
2021/09/04 12:30:27;;;;;;;3.73;2.93;;;;;;;;;;5101876;28;20262;-67
2021/09/04 12:33:02;;;;;;;3.13;2.83;;;;;;;;;;5111156;28;20290;-67
2021/09/04 12:36:01;;;;;;;3.50;3.20;;;;;;;;;;5098568;28;20295;-65
2021/09/04 12:38:31;;;;;;;3.10;2.80;;;;;;;;;;5035278;28;20285;-67
2021/09/04 12:41:06;;;;;;;5.33;3.00;;;;;;;;;;5085194;28;20288;-68
2021/09/04 12:43:50;;;;;;;2.87;2.63;;;;;;;;;;5116091;28;20290;-67
2021/09/04 12:46:31;;;;;;;4.37;3.17;;;;;;;;;;5118236;28;20238;-67
2021/09/04 12:48:59;;;;;;;3.83;2.83;;;;;;;;;;5098627;28;20211;-68
2021/09/04 12:51:35;;;;;;;5.20;3.53;;;;;;;;;;5107393;28;20231;-67
2021/09/04 12:54:03;;;;;;;6.03;3.30;;;;;;;;;;5116844;28;20582;-68
2021/09/04 12:56:35;;;;;;;5.37;3.70;;;;;;;;;;5117790;28;20207;-67
2021/09/04 12:59:05;;;;;;;4.27;3.17;;;;;;;;;;5109269;28;20567;-68
2021/09/04 13:01:33;;;;;;;4.77;3.70;;;;;;;;;;5108673;28;20571;-68
2021/09/04 13:04:03;;;;;;;4.57;3.90;;;;;;;;;;5110171;28;20567;-68
2021/09/04 13:06:31;;;;;;;3.43;3.10;;;;;;;;;;5106430;28;20200;-67
2021/09/04 13:09:00;;;;;;;8.07;2.73;;;;;;;;;;5106192;28;20265;-69
2021/09/04 13:11:28;;;;;;;3.60;3.30;;;;;;;;;;5103750;28;20231;-68
2021/09/04 13:13:56;;;;;;;5.50;3.17;;;;;;;;;;5096807;28;20218;-68
2021/09/04 13:16:25;;;;;;;3.67;3.37;;;;;;;;;;5103716;28;20213;-68
2021/09/04 13:18:53;;;;;;;6.17;3.93;;;;;;;;;;5105287;28;20242;-67
2021/09/04 13:21:23;;;;;;;5.17;3.57;;;;;;;;;;5104797;28;20283;-68
2021/09/04 13:23:51;;;;;;;3.63;2.80;;;;;;;;;;5105105;28;20252;-69
2021/09/04 13:26:19;;;;;;;6.23;3.43;;;;;;;;;;5101554;28;20202;-69
2021/09/04 13:28:47;;;;;;;4.73;3.20;;;;;;;;;;5105453;28;20235;-69
2021/09/04 13:31:15;;;;;;;4.30;2.60;;;;;;;;;;5102660;28;20228;-67
2021/09/04 13:33:45;;;;;;;3.93;2.97;;;;;;;;;;5105325;28;20669;-67
2021/09/04 13:36:13;;;;;;;4.90;3.40;;;;;;;;;;5102256;28;20209;-71
2021/09/04 13:38:41;;;;;;;3.07;2.77;;;;;;;;;;5104665;28;20210;-75
2021/09/04 13:41:09;;;;;;;3.53;2.80;;;;;;;;;;5102227;28;20195;-74
2021/09/04 13:43:37;;;;;;;3.80;3.07;;;;;;;;;;5108559;28;20198;-75
2021/09/04 13:46:05;;;;;;;6.53;3.00;;;;;;;;;;5106071;28;20282;-75
2021/09/04 13:48:34;;;;;;;3.67;2.73;;;;;;;;;;5103978;28;20232;-74
2021/09/04 13:51:03;;;;;;;3.60;2.80;;;;;;;;;;5106799;28;20685;-74
2021/09/04 13:53:31;;;;;;;3.90;3.30;;;;;;;;;;5100795;28;20613;-68
2021/09/04 13:56:00;;;;;;;6.07;3.17;;;;;;;;;;5101240;28;20239;-68
2021/09/04 13:58:28;;;;;;;4.00;2.83;;;;;;;;;;5108768;28;20209;-68
2021/09/04 14:00:55;;;;;;;3.57;3.27;;;;;;;;;;5101312;28;20190;-67
2021/09/04 14:03:24;;;;;;;4.73;2.93;;;;;;;;;;5104055;28;20226;-67
2021/09/04 14:05:52;;;;;;;3.07;2.83;;;;;;;;;;5105375;28;20688;-68
2021/09/04 14:08:21;;;;;;;4.13;3.10;;;;;;;;;;5102758;28;20212;-68
2021/09/04 14:10:50;;;;;;;4.50;3.40;;;;;;;;;;5101998;28;20213;-67
2021/09/04 14:13:18;;;;;;;3.73;2.60;;;;;;;;;;5104575;28;20201;-68
2021/09/04 14:15:46;;;;;;;4.10;3.63;;;;;;;;;;5114865;28;20233;-70
2021/09/04 14:18:14;;;;;;;3.50;3.20;;;;;;;;;;5108934;28;20216;-68
2021/09/04 14:20:42;;;;;;;3.67;3.00;;;;;;;;;;5110550;28;20199;-68
2021/09/04 14:23:10;;;;;;;4.07;3.57;;;;;;;;;;5107004;28;20201;-68
2021/09/04 14:25:39;;;;;;;3.40;3.10;;;;;;;;;;5106702;28;20730;-69
2021/09/04 14:28:07;;;;;;;3.50;3.10;;;;;;;;;;5102518;28;20207;-68
2021/09/04 14:30:35;;;;;;;3.50;3.20;;;;;;;;;;5102287;28;20208;-68
2021/09/04 14:33:03;;;;;;;4.00;3.40;;;;;;;;;;5103588;28;20729;-68
2021/09/04 14:35:31;;;;;;;4.40;2.90;;;;;;;;;;5103855;28;20252;-71
2021/09/04 14:37:59;;;;;;;4.67;2.97;;;;;;;;;;5113806;28;20290;-71
2021/09/04 14:40:28;;;;;;;3.87;2.93;;;;;;;;;;5118675;28;20230;-72
2021/09/04 14:42:57;;;;;;;4.03;3.50;;;;;;;;;;5110679;28;20667;-68
2021/09/04 14:45:26;;;;;;;3.30;3.07;;;;;;;;;;5118084;28;20227;-69
2021/09/04 14:47:54;;;;;;;3.03;2.83;;;;;;;;;;5109731;28;20570;-67
2021/09/04 14:50:24;;;;;;;6.77;3.40;;;;;;;;;;5108002;28;20210;-67
2021/09/04 14:52:52;;;;;;;3.47;3.13;;;;;;;;;;5103436;28;20594;-68